createdAt,value
2019-05-19T00:00:31.267Z,14.90
2019-05-19T00:02:34.099Z,14.90
2019-05-19T00:04:36.869Z,15.00
2019-05-19T00:06:39.654Z,14.90
2019-05-19T00:08:42.516Z,14.90
2019-05-19T00:10:45.410Z,14.90
2019-05-19T00:12:48.237Z,14.90
2019-05-19T00:14:51.033Z,14.90
2019-05-19T00:16:53.848Z,14.90
2019-05-19T00:18:56.658Z,14.90
2019-05-19T00:20:59.477Z,14.90
2019-05-19T00:23:02.552Z,14.90
2019-05-19T00:25:05.529Z,14.80
2019-05-19T00:27:08.360Z,14.70
2019-05-19T00:29:11.183Z,14.70
2019-05-19T00:31:14.006Z,14.70
2019-05-19T00:33:16.789Z,14.70
2019-05-19T00:35:19.601Z,14.70
2019-05-19T00:37:22.399Z,14.60
2019-05-19T00:39:25.209Z,14.60
2019-05-19T00:41:28.284Z,14.60
2019-05-19T00:43:31.239Z,14.60
2019-05-19T00:45:34.105Z,14.50
2019-05-19T00:47:36.930Z,14.50
2019-05-19T00:49:41.711Z,14.50
2019-05-19T00:51:44.454Z,14.50
2019-05-19T00:53:47.265Z,14.50
2019-05-19T00:55:51.221Z,14.50
2019-05-19T00:57:54.189Z,14.50
2019-05-19T00:59:57.178Z,14.50
2019-05-19T01:02:00.043Z,14.40
2019-05-19T01:04:02.841Z,14.30
2019-05-19T01:06:05.645Z,14.20
2019-05-19T01:08:08.463Z,14.20
2019-05-19T01:10:11.521Z,14.20
2019-05-19T01:12:14.309Z,14.20
2019-05-19T01:14:17.122Z,14.20
2019-05-19T01:16:19.916Z,14.10
2019-05-19T01:18:22.703Z,14.10
2019-05-19T01:20:25.572Z,14.00
2019-05-19T01:22:28.420Z,13.90
2019-05-19T01:24:31.218Z,13.90
2019-05-19T01:26:34.023Z,13.90
2019-05-19T01:28:36.810Z,13.90
2019-05-19T01:30:39.625Z,13.80
2019-05-19T01:32:42.417Z,13.80
2019-05-19T01:34:45.264Z,13.80
2019-05-19T01:36:48.057Z,13.70
2019-05-19T01:38:50.840Z,13.70
2019-05-19T01:40:53.657Z,13.70
2019-05-19T01:42:56.449Z,13.70
2019-05-19T01:44:59.276Z,13.70
2019-05-19T01:47:02.126Z,13.70
2019-05-19T01:49:04.916Z,13.60
2019-05-19T01:51:07.741Z,13.70
2019-05-19T01:53:10.667Z,13.60
2019-05-19T01:55:13.483Z,13.60
2019-05-19T01:57:16.272Z,13.60
2019-05-19T01:59:19.062Z,13.60
2019-05-19T02:01:21.889Z,13.60
2019-05-19T02:03:24.670Z,13.60
2019-05-19T02:05:27.456Z,13.60
2019-05-19T02:07:30.336Z,13.50
2019-05-19T02:09:33.083Z,13.50
2019-05-19T02:11:35.900Z,13.50
2019-05-19T02:13:38.693Z,13.60
2019-05-19T02:15:41.485Z,13.60
2019-05-19T02:17:44.289Z,13.60
2019-05-19T02:19:47.088Z,13.50
2019-05-19T02:21:49.908Z,13.50
2019-05-19T02:23:52.686Z,13.40
2019-05-19T02:25:55.505Z,13.40
2019-05-19T02:27:58.303Z,13.40
2019-05-19T02:30:01.121Z,13.40
2019-05-19T02:32:03.995Z,13.40
2019-05-19T02:34:06.790Z,13.40
2019-05-19T02:36:09.605Z,13.40
2019-05-19T02:38:12.401Z,13.40
2019-05-19T02:40:15.466Z,13.40
2019-05-19T02:42:19.128Z,13.30
2019-05-19T02:44:22.323Z,13.30
2019-05-19T02:46:25.793Z,13.30
2019-05-19T02:48:29.363Z,13.30
2019-05-19T02:50:49.270Z,13.20
2019-05-19T02:52:38.558Z,13.20
2019-05-19T02:54:42.055Z,13.10
2019-05-19T02:56:46.641Z,13.00
2019-05-19T02:58:50.100Z,12.90
2019-05-19T03:00:52.920Z,12.90
2019-05-19T03:02:55.727Z,12.90
2019-05-19T03:04:58.589Z,12.90
2019-05-19T03:07:01.385Z,12.90
2019-05-19T03:09:04.845Z,12.80
2019-05-19T03:11:07.711Z,12.80
2019-05-19T03:13:10.505Z,12.80
2019-05-19T03:15:13.513Z,12.80
2019-05-19T03:17:16.382Z,12.80
2019-05-19T03:19:19.177Z,12.80
2019-05-19T03:21:21.990Z,12.80
2019-05-19T03:23:24.805Z,12.80
2019-05-19T03:25:27.600Z,12.80
2019-05-19T03:27:30.388Z,12.80
2019-05-19T03:29:34.841Z,12.70
2019-05-19T03:31:45.269Z,12.60
2019-05-19T03:33:55.216Z,12.60
2019-05-19T03:35:58.024Z,12.60
2019-05-19T03:38:00.810Z,12.50
2019-05-19T03:40:05.911Z,12.50
2019-05-19T03:42:10.579Z,12.40
2019-05-19T03:44:13.237Z,12.50
2019-05-19T03:46:16.049Z,12.60
2019-05-19T03:48:18.950Z,12.60
2019-05-19T03:50:21.747Z,12.70
2019-05-19T03:52:26.223Z,12.80
2019-05-19T03:54:29.012Z,12.90
2019-05-19T03:56:31.817Z,13.00
2019-05-19T03:58:34.677Z,13.00
2019-05-19T04:00:37.665Z,13.00
2019-05-19T04:02:40.458Z,13.00
2019-05-19T04:04:43.242Z,12.90
2019-05-19T04:06:46.137Z,13.00
2019-05-19T04:08:48.931Z,13.00
2019-05-19T04:10:51.754Z,13.00
2019-05-19T04:12:54.575Z,13.00
2019-05-19T04:14:57.368Z,13.00
2019-05-19T04:17:00.196Z,13.00
2019-05-19T04:19:03.002Z,13.10
2019-05-19T04:21:05.789Z,13.10
2019-05-19T04:23:08.811Z,13.10
2019-05-19T04:25:11.770Z,13.20
2019-05-19T04:27:15.701Z,13.20
2019-05-19T04:29:18.513Z,13.30
2019-05-19T04:31:21.403Z,13.30
2019-05-19T04:33:24.181Z,13.40
2019-05-19T04:35:26.993Z,13.40
2019-05-19T04:37:29.774Z,13.50
2019-05-19T04:39:32.568Z,13.50
2019-05-19T04:41:35.350Z,13.60
2019-05-19T04:43:38.173Z,13.70
2019-05-19T04:45:41.036Z,13.70
2019-05-19T04:47:43.933Z,13.70
2019-05-19T04:49:46.738Z,13.80
2019-05-19T04:52:05.394Z,13.80
2019-05-19T04:53:53.988Z,13.80
2019-05-19T04:55:56.772Z,13.90
2019-05-19T04:57:59.577Z,13.90
2019-05-19T05:00:02.397Z,13.90
2019-05-19T05:02:05.265Z,13.90
2019-05-19T05:04:08.038Z,14.00
2019-05-19T05:06:10.861Z,14.00
2019-05-19T05:08:28.816Z,14.10
2019-05-19T05:10:18.174Z,14.10
2019-05-19T05:12:20.987Z,14.20
2019-05-19T05:14:23.762Z,14.20
2019-05-19T05:16:26.612Z,14.30
2019-05-19T05:18:29.497Z,14.40
2019-05-19T05:20:32.275Z,14.40
2019-05-19T05:22:35.100Z,14.40
2019-05-19T05:24:37.929Z,14.40
2019-05-19T05:26:40.820Z,14.50
2019-05-19T05:28:43.621Z,14.60
2019-05-19T05:30:46.432Z,14.60
2019-05-19T05:32:49.234Z,14.70
2019-05-19T05:34:52.004Z,14.70
2019-05-19T05:36:54.825Z,14.70
2019-05-19T05:38:57.612Z,14.70
2019-05-19T05:41:00.394Z,14.80
2019-05-19T05:43:03.221Z,14.80
2019-05-19T05:45:09.228Z,14.80
2019-05-19T05:47:12.028Z,14.90
2019-05-19T05:49:14.832Z,14.90
2019-05-19T05:51:17.621Z,15.00
2019-05-19T05:53:20.440Z,15.00
2019-05-19T05:55:23.322Z,15.10
2019-05-19T05:57:26.123Z,15.10
2019-05-19T05:59:28.941Z,15.10
2019-05-19T06:01:31.757Z,15.20
2019-05-19T06:03:34.551Z,15.20
2019-05-19T06:05:37.345Z,15.30
2019-05-19T06:07:40.125Z,15.40
2019-05-19T06:09:42.934Z,15.40
2019-05-19T06:11:45.726Z,15.50
2019-05-19T06:13:49.769Z,15.50
2019-05-19T06:15:52.741Z,15.50
2019-05-19T06:17:55.539Z,15.50
2019-05-19T06:19:58.373Z,15.60
2019-05-19T06:22:01.175Z,15.60
2019-05-19T06:24:04.632Z,15.60
2019-05-19T06:26:07.497Z,15.60
2019-05-19T06:28:10.305Z,15.70
2019-05-19T06:30:13.263Z,15.80
2019-05-19T06:32:17.731Z,15.80
2019-05-19T06:34:20.525Z,15.80
2019-05-19T06:36:23.356Z,15.90
2019-05-19T06:38:26.223Z,15.90
2019-05-19T06:40:29.069Z,16.00
2019-05-19T06:42:31.856Z,16.00
2019-05-19T06:44:34.656Z,16.00
2019-05-19T06:46:37.481Z,16.10
2019-05-19T06:48:40.269Z,16.10
2019-05-19T06:50:43.095Z,16.10
2019-05-19T06:52:45.951Z,16.20
2019-05-19T06:54:48.786Z,16.30
2019-05-19T06:56:51.557Z,16.30
2019-05-19T06:58:54.361Z,16.40
2019-05-19T07:00:59.103Z,16.50
2019-05-19T07:03:01.631Z,16.50
2019-05-19T07:05:05.405Z,16.60
2019-05-19T07:07:08.495Z,16.60
2019-05-19T07:09:11.400Z,16.60
2019-05-19T07:11:14.185Z,16.70
2019-05-19T07:13:17.007Z,16.70
2019-05-19T07:15:19.951Z,16.70
2019-05-19T07:17:22.829Z,16.80
2019-05-19T07:19:25.623Z,16.80
2019-05-19T07:21:28.439Z,16.90
2019-05-19T07:23:31.220Z,17.00
2019-05-19T07:25:34.009Z,17.00
2019-05-19T07:27:36.841Z,17.10
2019-05-19T07:29:39.643Z,17.10
2019-05-19T07:31:42.430Z,17.10
2019-05-19T07:33:45.215Z,17.20
2019-05-19T07:35:48.033Z,17.30
2019-05-19T07:37:50.816Z,17.30
2019-05-19T07:39:53.609Z,17.40
2019-05-19T07:41:56.407Z,17.40
2019-05-19T07:43:59.191Z,17.40
2019-05-19T07:46:02.006Z,17.50
2019-05-19T07:48:04.797Z,17.60
2019-05-19T07:50:07.756Z,17.60
2019-05-19T07:52:10.567Z,17.60
2019-05-19T07:54:13.366Z,17.60
2019-05-19T07:56:16.157Z,17.70
2019-05-19T07:58:18.986Z,17.80
2019-05-19T08:00:21.845Z,17.80
2019-05-19T08:02:24.690Z,17.80
2019-05-19T08:04:27.473Z,17.80
2019-05-19T08:06:31.053Z,17.80
2019-05-19T08:08:33.873Z,17.90
2019-05-19T08:10:36.650Z,18.00
2019-05-19T08:12:39.477Z,18.00
2019-05-19T08:14:42.265Z,18.10
2019-05-19T08:16:45.086Z,18.20
2019-05-19T08:18:47.937Z,18.20
2019-05-19T08:20:50.735Z,18.30
2019-05-19T08:22:53.566Z,18.30
2019-05-19T08:24:56.369Z,18.30
2019-05-19T08:26:59.193Z,18.30
2019-05-19T08:29:01.980Z,18.30
2019-05-19T08:31:05.174Z,18.40
2019-05-19T08:33:07.952Z,18.40
2019-05-19T08:35:10.865Z,18.50
2019-05-19T08:37:13.763Z,18.60
2019-05-19T08:39:16.588Z,18.70
2019-05-19T08:41:19.348Z,18.70
2019-05-19T08:43:22.139Z,18.80
2019-05-19T08:45:25.005Z,18.80
2019-05-19T08:47:27.799Z,18.90
2019-05-19T08:49:30.706Z,18.90
2019-05-19T08:51:33.464Z,18.90
2019-05-19T08:53:36.326Z,18.90
2019-05-19T08:55:39.135Z,19.00
2019-05-19T08:57:41.930Z,19.00
2019-05-19T08:59:44.735Z,19.00
2019-05-19T09:01:47.554Z,19.00
2019-05-19T09:03:50.388Z,19.10
2019-05-19T09:05:53.202Z,19.20
2019-05-19T09:07:55.976Z,19.20
2019-05-19T09:09:58.798Z,19.20
2019-05-19T09:12:01.677Z,19.30
2019-05-19T09:14:04.494Z,19.40
2019-05-19T09:16:07.315Z,19.40
2019-05-19T09:18:10.201Z,19.50
2019-05-19T09:20:13.080Z,19.60
2019-05-19T09:22:15.875Z,19.70
2019-05-19T09:24:29.941Z,19.70
2019-05-19T09:26:23.233Z,19.70
2019-05-19T09:28:26.581Z,19.80
2019-05-19T09:30:29.370Z,19.80
2019-05-19T09:32:32.148Z,19.90
2019-05-19T09:34:34.970Z,19.90
2019-05-19T09:36:37.753Z,19.90
2019-05-19T09:38:40.620Z,20.00
2019-05-19T09:40:43.374Z,20.10
2019-05-19T09:42:46.175Z,20.10
2019-05-19T09:44:48.967Z,20.20
2019-05-19T09:46:51.750Z,20.30
2019-05-19T09:48:56.202Z,20.40
2019-05-19T09:50:59.361Z,20.40
2019-05-19T09:53:02.157Z,20.50
2019-05-19T09:55:05.386Z,20.50
2019-05-19T09:57:08.178Z,20.60
2019-05-19T09:59:10.957Z,20.60
2019-05-19T10:01:13.753Z,20.70
2019-05-19T10:03:19.199Z,20.70
2019-05-19T10:05:21.001Z,20.80
2019-05-19T10:07:23.809Z,20.90
2019-05-19T10:09:36.315Z,21.00
2019-05-19T10:11:42.519Z,21.00
2019-05-19T10:13:45.300Z,21.10
2019-05-19T10:15:48.175Z,21.10
2019-05-19T10:17:50.967Z,21.20
2019-05-19T10:19:53.761Z,21.30
2019-05-19T10:21:56.651Z,21.40
2019-05-19T10:23:59.447Z,21.50
2019-05-19T10:26:02.273Z,21.50
2019-05-19T10:28:05.107Z,21.60
2019-05-19T10:30:08.759Z,21.70
2019-05-19T10:32:11.658Z,21.70
2019-05-19T10:34:14.486Z,21.80
2019-05-19T10:36:17.270Z,21.90
2019-05-19T10:38:20.072Z,22.10
2019-05-19T10:40:22.990Z,22.20
2019-05-19T10:42:25.762Z,22.30
2019-05-19T10:44:28.662Z,22.40
2019-05-19T10:46:31.499Z,22.50
2019-05-19T10:48:34.292Z,22.60
2019-05-19T10:50:37.081Z,22.60
2019-05-19T10:52:39.877Z,22.70
2019-05-19T10:54:42.710Z,22.70
2019-05-19T10:56:45.534Z,22.80
2019-05-19T10:58:48.404Z,23.00
2019-05-19T11:00:51.180Z,23.00
2019-05-19T11:02:53.999Z,23.00
2019-05-19T11:04:56.777Z,23.10
2019-05-19T11:06:59.607Z,23.20
2019-05-19T11:09:04.261Z,23.20
2019-05-19T11:11:07.049Z,23.30
2019-05-19T11:13:09.918Z,23.40
2019-05-19T11:15:12.918Z,23.40
2019-05-19T11:17:15.980Z,23.50
2019-05-19T11:19:18.764Z,23.60
2019-05-19T11:21:21.589Z,23.70
2019-05-19T11:23:24.401Z,23.70
2019-05-19T11:25:34.078Z,23.70
2019-05-19T11:27:31.661Z,23.70
2019-05-19T11:29:34.465Z,23.70
2019-05-19T11:31:37.250Z,23.70
2019-05-19T11:33:40.049Z,23.80
2019-05-19T11:35:42.845Z,23.80
2019-05-19T11:37:45.654Z,23.80
2019-05-19T11:39:48.442Z,23.90
2019-05-19T11:41:51.262Z,24.10
2019-05-19T11:43:54.042Z,24.20
2019-05-19T11:45:56.830Z,24.20
2019-05-19T11:47:59.692Z,24.30
2019-05-19T11:50:02.555Z,24.40
2019-05-19T11:52:05.413Z,24.50
2019-05-19T11:54:08.233Z,24.50
2019-05-19T11:56:11.626Z,24.50
2019-05-19T11:58:14.635Z,24.50
2019-05-19T12:00:17.567Z,24.60
2019-05-19T12:02:20.356Z,24.70
2019-05-19T12:04:23.179Z,24.70
2019-05-19T12:06:38.755Z,24.80
2019-05-19T12:08:30.424Z,24.70
2019-05-19T12:10:33.255Z,24.80
2019-05-19T12:12:36.060Z,24.80
2019-05-19T12:14:38.943Z,24.80
2019-05-19T12:16:41.745Z,24.80
2019-05-19T12:18:44.552Z,24.80
2019-05-19T12:20:47.382Z,24.80
2019-05-19T12:22:50.886Z,24.80
2019-05-19T12:24:53.676Z,24.80
2019-05-19T12:26:56.487Z,24.80
2019-05-19T12:28:59.355Z,24.80
2019-05-19T12:31:02.181Z,24.90
2019-05-19T12:33:04.978Z,24.90
2019-05-19T12:35:07.976Z,24.90
2019-05-19T12:37:10.757Z,24.90
2019-05-19T12:39:13.540Z,25.00
2019-05-19T12:41:16.360Z,25.00
2019-05-19T12:43:19.164Z,25.00
2019-05-19T12:45:22.120Z,25.00
2019-05-19T12:47:24.958Z,24.90
2019-05-19T12:49:27.744Z,25.00
2019-05-19T12:51:30.568Z,25.00
2019-05-19T12:53:33.363Z,25.10
2019-05-19T12:55:36.153Z,25.00
2019-05-19T12:57:39.002Z,25.10
2019-05-19T12:59:41.831Z,25.20
2019-05-19T13:01:44.680Z,25.20
2019-05-19T13:03:47.474Z,25.10
2019-05-19T13:05:50.276Z,25.10
2019-05-19T13:07:53.061Z,25.20
2019-05-19T13:09:55.853Z,25.30
2019-05-19T13:11:58.641Z,25.30
2019-05-19T13:14:01.451Z,25.30
2019-05-19T13:16:04.430Z,25.40
2019-05-19T13:18:07.241Z,25.40
2019-05-19T13:20:10.285Z,25.40
2019-05-19T13:22:13.002Z,25.40
2019-05-19T13:24:15.832Z,25.50
2019-05-19T13:26:18.775Z,25.60
2019-05-19T13:28:21.686Z,25.60
2019-05-19T13:30:24.456Z,25.60
2019-05-19T13:32:27.482Z,25.60
2019-05-19T13:34:30.242Z,25.60
2019-05-19T13:36:33.249Z,25.60
2019-05-19T13:38:36.065Z,25.60
2019-05-19T13:40:38.862Z,25.60
2019-05-19T13:42:41.662Z,25.60
2019-05-19T13:44:44.483Z,25.40
2019-05-19T13:46:47.338Z,25.40
2019-05-19T13:48:50.150Z,25.30
2019-05-19T13:50:52.946Z,25.20
2019-05-19T13:52:55.725Z,25.20
2019-05-19T13:54:58.540Z,25.10
2019-05-19T13:57:11.766Z,25.10
2019-05-19T13:59:05.830Z,25.00
2019-05-19T14:01:08.652Z,24.90
2019-05-19T14:03:11.464Z,24.90
2019-05-19T14:05:14.629Z,24.90
2019-05-19T14:07:17.449Z,24.90
2019-05-19T14:09:20.277Z,24.90
2019-05-19T14:11:23.170Z,25.10
2019-05-19T14:13:25.964Z,25.20
2019-05-19T14:15:28.856Z,25.50
2019-05-19T14:17:31.683Z,25.90
2019-05-19T14:19:34.548Z,26.20
2019-05-19T14:21:37.368Z,26.30
2019-05-19T14:23:40.187Z,26.70
2019-05-19T14:25:42.975Z,26.90
2019-05-19T14:27:45.804Z,26.90
2019-05-19T14:29:48.581Z,26.60
2019-05-19T14:31:51.382Z,26.60
2019-05-19T14:33:54.212Z,26.40
2019-05-19T14:35:57.049Z,26.40
2019-05-19T14:38:00.053Z,26.40
2019-05-19T14:40:04.345Z,26.40
2019-05-19T14:42:08.790Z,26.30
2019-05-19T14:44:11.640Z,26.10
2019-05-19T14:46:14.697Z,26.00
2019-05-19T14:48:17.475Z,25.90
2019-05-19T14:50:20.369Z,25.80
2019-05-19T14:52:23.150Z,25.70
2019-05-19T14:54:25.975Z,25.90
2019-05-19T14:56:28.791Z,26.50
2019-05-19T14:58:31.694Z,27.20
2019-05-19T15:00:34.533Z,27.80
2019-05-19T15:02:37.335Z,28.30
2019-05-19T15:04:40.133Z,28.60
2019-05-19T15:06:43.027Z,28.70
2019-05-19T15:08:45.797Z,28.80
2019-05-19T15:10:48.614Z,28.50
2019-05-19T15:12:51.457Z,28.00
2019-05-19T15:14:54.278Z,27.70
2019-05-19T15:16:57.087Z,27.60
2019-05-19T15:18:59.918Z,27.60
2019-05-19T15:21:02.713Z,27.90
2019-05-19T15:23:05.496Z,27.80
2019-05-19T15:25:08.381Z,27.60
2019-05-19T15:27:11.260Z,27.40
2019-05-19T15:29:14.085Z,27.20
2019-05-19T15:31:17.097Z,26.90
2019-05-19T15:33:19.925Z,26.70
2019-05-19T15:35:22.756Z,26.70
2019-05-19T15:37:25.587Z,26.90
2019-05-19T15:39:28.408Z,27.10
2019-05-19T15:41:31.263Z,27.70
2019-05-19T15:43:34.040Z,28.40
2019-05-19T15:45:36.920Z,29.20
2019-05-19T15:47:39.781Z,29.80
2019-05-19T15:49:42.590Z,30.30
2019-05-19T15:52:00.537Z,30.50
2019-05-19T15:53:49.857Z,30.70
2019-05-19T15:55:52.708Z,30.80
2019-05-19T15:57:55.513Z,30.90
2019-05-19T15:59:58.290Z,31.10
2019-05-19T16:02:01.124Z,31.00
2019-05-19T16:04:03.976Z,30.90
2019-05-19T16:06:06.828Z,31.40
2019-05-19T16:08:09.721Z,31.80
2019-05-19T16:10:13.076Z,31.80
2019-05-19T16:12:15.904Z,31.90
2019-05-19T16:14:18.761Z,32.10
2019-05-19T16:16:21.592Z,32.40
2019-05-19T16:18:24.392Z,32.80
2019-05-19T16:20:27.183Z,33.00
2019-05-19T16:22:30.002Z,33.10
2019-05-19T16:24:32.879Z,33.20
2019-05-19T16:26:35.697Z,33.00
2019-05-19T16:28:38.515Z,32.50
2019-05-19T16:30:41.305Z,32.50
2019-05-19T16:32:44.135Z,32.50
2019-05-19T16:34:46.954Z,32.50
2019-05-19T16:36:49.816Z,32.30
2019-05-19T16:38:52.712Z,32.00
2019-05-19T16:40:55.498Z,31.90
2019-05-19T16:43:02.108Z,31.60
2019-05-19T16:45:02.846Z,31.20
2019-05-19T16:47:05.642Z,31.10
2019-05-19T16:49:08.527Z,30.90
2019-05-19T16:51:11.330Z,29.90
2019-05-19T16:53:14.134Z,28.70
2019-05-19T16:55:21.416Z,27.80
2019-05-19T16:57:24.213Z,26.50
2019-05-19T16:59:27.000Z,25.40
2019-05-19T17:01:29.822Z,24.50
2019-05-19T17:03:32.613Z,23.90
2019-05-19T17:05:35.524Z,23.40
2019-05-19T17:07:38.316Z,23.10
2019-05-19T17:09:41.097Z,22.90
2019-05-19T17:11:43.917Z,22.60
2019-05-19T17:13:46.694Z,22.40
2019-05-19T17:15:49.529Z,22.30
2019-05-19T17:17:52.397Z,22.20
2019-05-19T17:19:55.187Z,22.00
2019-05-19T17:21:57.996Z,22.00
2019-05-19T17:24:00.833Z,21.90
2019-05-19T17:26:03.644Z,21.70
2019-05-19T17:28:06.538Z,21.60
2019-05-19T17:30:10.003Z,21.50
2019-05-19T17:32:12.883Z,21.40
2019-05-19T17:34:15.660Z,21.30
2019-05-19T17:36:18.465Z,21.20
2019-05-19T17:38:21.374Z,21.20
2019-05-19T17:40:24.152Z,21.20
2019-05-19T17:42:26.958Z,21.10
2019-05-19T17:44:29.834Z,21.00
2019-05-19T17:46:32.775Z,21.00
2019-05-19T17:48:35.645Z,20.90
2019-05-19T17:50:38.468Z,20.80
2019-05-19T17:52:41.332Z,20.80
2019-05-19T17:54:44.224Z,20.80
2019-05-19T17:56:47.416Z,20.80
2019-05-19T17:58:50.310Z,20.70
2019-05-19T18:00:53.115Z,20.70
2019-05-19T18:02:55.885Z,20.80
2019-05-19T18:04:58.707Z,20.70
2019-05-19T18:07:01.519Z,20.70
2019-05-19T18:09:05.244Z,20.60
2019-05-19T18:11:08.049Z,20.60
2019-05-19T18:13:10.848Z,20.50
2019-05-19T18:15:13.749Z,20.50
2019-05-19T18:17:16.537Z,20.40
2019-05-19T18:19:19.397Z,20.30
2019-05-19T18:21:25.119Z,20.20
2019-05-19T18:23:27.987Z,20.20
2019-05-19T18:25:30.863Z,20.20
2019-05-19T18:27:33.654Z,20.10
2019-05-19T18:29:36.446Z,20.10
2019-05-19T18:31:39.281Z,20.10
2019-05-19T18:33:42.160Z,20.00
2019-05-19T18:35:44.946Z,20.00
2019-05-19T18:37:47.906Z,20.00
2019-05-19T18:39:50.688Z,20.00
2019-05-19T18:41:53.484Z,20.00
2019-05-19T18:43:56.292Z,20.00
2019-05-19T18:45:59.189Z,20.00
2019-05-19T18:48:02.106Z,20.00
2019-05-19T18:50:06.172Z,20.00
2019-05-19T18:52:09.046Z,20.00
2019-05-19T18:54:11.830Z,20.00
2019-05-19T18:56:14.627Z,19.90
2019-05-19T18:58:17.433Z,19.90
2019-05-19T19:00:27.668Z,19.90
2019-05-19T19:02:30.568Z,19.90
2019-05-19T19:04:33.505Z,19.90
2019-05-19T19:06:36.386Z,19.90
2019-05-19T19:08:39.423Z,19.80
2019-05-19T19:10:42.298Z,19.70
2019-05-19T19:12:45.078Z,19.70
2019-05-19T19:14:47.864Z,19.70
2019-05-19T19:16:50.758Z,19.70
2019-05-19T19:18:53.558Z,19.70
2019-05-19T19:20:56.362Z,19.70
2019-05-19T19:22:59.401Z,19.70
2019-05-19T19:25:02.229Z,19.60
2019-05-19T19:27:05.102Z,19.60
2019-05-19T19:29:07.929Z,19.50
2019-05-19T19:31:10.718Z,19.50
2019-05-19T19:33:13.712Z,19.50
2019-05-19T19:35:16.670Z,19.40
2019-05-19T19:37:19.472Z,19.50
2019-05-19T19:39:22.267Z,19.40
2019-05-19T19:41:25.085Z,19.40
2019-05-19T19:43:28.051Z,19.40
2019-05-19T19:45:30.916Z,19.40
2019-05-19T19:47:33.753Z,19.40
2019-05-19T19:49:36.512Z,19.30
2019-05-19T19:51:39.370Z,19.30
2019-05-19T19:53:42.198Z,19.20
2019-05-19T19:55:44.988Z,19.10
2019-05-19T19:57:47.815Z,19.10
2019-05-19T19:59:50.613Z,19.10
2019-05-19T20:01:53.616Z,19.10
2019-05-19T20:03:56.570Z,19.10
2019-05-19T20:05:59.374Z,19.00
2019-05-19T20:08:02.272Z,19.00
2019-05-19T20:10:06.299Z,18.90
2019-05-19T20:12:09.231Z,18.90
2019-05-19T20:14:12.057Z,18.80
2019-05-19T20:16:15.349Z,18.70
2019-05-19T20:18:18.227Z,18.70
2019-05-19T20:20:23.968Z,18.60
2019-05-19T20:22:25.473Z,18.50
2019-05-19T20:24:28.372Z,18.40
2019-05-19T20:26:31.097Z,18.40
2019-05-19T20:28:33.909Z,18.30
2019-05-19T20:30:37.006Z,18.20
2019-05-19T20:32:39.932Z,18.20
2019-05-19T20:34:42.806Z,18.10
2019-05-19T20:36:45.710Z,18.10
2019-05-19T20:38:48.508Z,18.00
2019-05-19T20:40:51.343Z,18.00
2019-05-19T20:42:56.868Z,18.00
2019-05-19T20:44:58.951Z,17.90
2019-05-19T20:47:01.770Z,17.90
2019-05-19T20:49:04.560Z,17.80
2019-05-19T20:51:07.455Z,17.80
2019-05-19T20:53:10.263Z,17.70
2019-05-19T20:55:13.224Z,17.60
2019-05-19T20:57:16.108Z,17.60
2019-05-19T20:59:18.929Z,17.60
2019-05-19T21:01:21.816Z,17.50
2019-05-19T21:03:25.178Z,17.50
2019-05-19T21:05:28.144Z,17.50
2019-05-19T21:07:30.948Z,17.40
2019-05-19T21:09:33.820Z,17.40
2019-05-19T21:11:36.631Z,17.30
2019-05-19T21:13:39.429Z,17.20
2019-05-19T21:15:42.422Z,17.10
2019-05-19T21:17:45.211Z,17.10
2019-05-19T21:19:48.001Z,17.10
2019-05-19T21:21:50.814Z,17.10
2019-05-19T21:23:53.630Z,17.00
2019-05-19T21:25:56.422Z,17.00
2019-05-19T21:27:59.248Z,17.00
2019-05-19T21:30:02.236Z,16.90
2019-05-19T21:32:05.019Z,16.90
2019-05-19T21:34:07.916Z,16.80
2019-05-19T21:36:10.705Z,16.80
2019-05-19T21:38:13.505Z,16.70
2019-05-19T21:40:16.490Z,16.70
2019-05-19T21:42:19.293Z,16.70
2019-05-19T21:44:22.196Z,16.70
2019-05-19T21:46:24.977Z,16.60
2019-05-19T21:48:32.263Z,16.60
2019-05-19T21:50:35.064Z,16.50
2019-05-19T21:52:37.848Z,16.60
2019-05-19T21:54:40.661Z,16.60
2019-05-19T21:56:43.451Z,16.50
2019-05-19T21:58:46.229Z,16.50
2019-05-19T22:00:49.445Z,16.40
2019-05-19T22:02:52.169Z,16.40
2019-05-19T22:04:54.987Z,16.40
2019-05-19T22:06:59.411Z,16.40
2019-05-19T22:09:02.255Z,16.30
2019-05-19T22:11:05.127Z,16.30
2019-05-19T22:13:07.997Z,16.30
2019-05-19T22:15:11.817Z,16.30
2019-05-19T22:17:14.614Z,16.20
2019-05-19T22:19:17.441Z,16.20
2019-05-19T22:21:20.273Z,16.10
2019-05-19T22:23:23.071Z,16.10
2019-05-19T22:25:25.953Z,16.10
2019-05-19T22:27:28.756Z,16.10
2019-05-19T22:29:31.587Z,16.10
2019-05-19T22:31:36.950Z,16.10
2019-05-19T22:33:38.822Z,16.00
2019-05-19T22:35:41.661Z,16.00
2019-05-19T22:37:44.460Z,16.00
2019-05-19T22:39:47.240Z,16.00
2019-05-19T22:41:50.069Z,15.90
2019-05-19T22:43:52.927Z,15.80
2019-05-19T22:45:55.757Z,15.80
2019-05-19T22:47:58.562Z,15.80
2019-05-19T22:50:01.398Z,15.70
2019-05-19T22:52:04.248Z,15.70
2019-05-19T22:54:07.068Z,15.70
2019-05-19T22:56:10.146Z,15.70
2019-05-19T22:58:12.950Z,15.70
2019-05-19T23:00:16.341Z,15.70
2019-05-19T23:02:19.310Z,15.60
2019-05-19T23:04:22.075Z,15.60
2019-05-19T23:06:24.865Z,15.60
2019-05-19T23:08:27.693Z,15.50
2019-05-19T23:10:30.480Z,15.50
2019-05-19T23:12:33.277Z,15.50
2019-05-19T23:14:36.107Z,15.60
2019-05-19T23:16:38.891Z,15.50
2019-05-19T23:18:41.797Z,15.60
2019-05-19T23:20:44.578Z,15.50
2019-05-19T23:22:47.436Z,15.60
2019-05-19T23:24:50.277Z,15.50
2019-05-19T23:26:53.054Z,15.50
2019-05-19T23:28:55.856Z,15.50
2019-05-19T23:30:58.644Z,15.50
2019-05-19T23:33:01.436Z,15.50
2019-05-19T23:35:05.424Z,15.50
2019-05-19T23:37:08.218Z,15.50
2019-05-19T23:39:11.054Z,15.50
2019-05-19T23:41:13.848Z,15.50
2019-05-19T23:43:16.640Z,15.50
2019-05-19T23:45:19.461Z,15.50
2019-05-19T23:47:22.268Z,15.50
2019-05-19T23:49:25.057Z,15.50
2019-05-19T23:51:27.886Z,15.50
2019-05-19T23:53:30.659Z,15.40
2019-05-19T23:55:33.490Z,15.50
2019-05-19T23:57:36.316Z,15.50
2019-05-19T23:59:39.101Z,15.40
